Sherburne, NY (13460)

2:34 AM EST on March 06, 2015 (GMT -0500)
APRSWXNET Sherburne NY US | Change Station
CLOSE
Current Station
Personal Weather Station
Location: Sherburne, NY
Elevation: 1055 ft
Nearby Weather Stations

Elev 1055 ft 42.69 °N, 75.50 °W | Updated 30 minutes ago

Partly Cloudy
Partly Cloudy
5 °F
Feels Like 5 °F
N
0
Wind Variable Wind from WNW
Gusts 1.0 mph

Today
High -- | Low -- °F
--% Chance of Precip.
Yesterday
High -- | Low -- °F
Precip. -- in
6:29 AM 5:57 PM
Full, 100% visible
Pressure 30.40 in
Visibility 1.5 miles
Clouds
Windchill 5 °F
Dew Point 1 °F
Humidity 83%
Rainfall in
Snow Depth Not available.
UV Not available.
Pollen .40 out of 12
Air Quality Not available.
Flu Activity Not available.
METAR KN03 060715Z AUTO 00000KT 1 1/2SM -SN VV007 M17/M18 A3040 RMK AO2

More Conditions Fewer Conditions

Pressure 30.40 in
Visibility 1.5 miles
Clouds
Windchill 5 °F
Dew Point 1 °F
Humidity 83%
Rainfall in
Snow Depth Not available.
UV Not available.
Pollen .40 out of 12
Air Quality Not available.
Flu Activity Not available.
METAR KN03 060715Z AUTO 00000KT 1 1/2SM -SN VV007 M17/M18 A3040 RMK AO2

More Conditions Fewer Conditions

10-Day Weather Forecast

Almanac

Astronomy

Mar. 06, 2015 Rise Set
Actual Time
Civil Twilight
Nautical Twilight
Astronomical Twilight
Moon
Length of Visible Light
Length of Day
Tomorrow will be .
, % of the Moon is Illuminated

Today's Extremes

State Highs State Lows

Community

WunderPhotos

Upload Photos

1,803,199 photos uploaded!

WunderBlogs® & News

Nearby

Air Quality

  Air Quality AQ Index Pollutant
Not available.

Snow Depth

Station Depth Elevation

Earthquake Activity

City Distance Mag. Time & Date
Minimum magnitude displayed is 2.5.

Coastal Water Temperatures

Place Temperature

Nearby Weather Stations